Time;durP1;ratioP1;P1;durP2;ratioP2;P2;SDS_P1;SDS_P2;PMS_P1;PMS_P2;Temp;Humidity;BMP_temperature;BMP_pressure;BME280_temperature;BME280_humidity;BME280_pressure;Samples;Min_cycle;Max_cycle;Signal;HPM_P1;HPM_P2
2021/12/12 00:01:14;;;;;;;5.05;3.55;;;20.50;48.40;;;;;;4996696;28;20046;-62
2021/12/12 00:03:47;;;;;;;5.72;3.75;;;20.50;48.40;;;;;;4996718;28;20046;-62
2021/12/12 00:06:18;;;;;;;6.65;3.83;;;20.50;48.30;;;;;;4996838;28;20042;-62
2021/12/12 00:08:48;;;;;;;4.03;3.45;;;20.50;48.30;;;;;;4996649;28;20042;-62
2021/12/12 00:11:19;;;;;;;6.25;4.03;;;20.50;48.20;;;;;;4996557;28;20046;-62
2021/12/12 00:13:50;;;;;;;6.63;3.70;;;20.50;48.20;;;;;;4996248;28;20429;-62
2021/12/12 00:16:15;;;;;;;;;;;20.50;48.10;;;;;;4996851;28;20039;-62
2021/12/12 00:18:41;;;;;;;5.85;4.00;;;20.40;47.90;;;;;;4996295;28;19925;-62
2021/12/12 00:21:09;;;;;;;4.78;3.42;;;20.40;48.20;;;;;;4996918;28;20038;-62
2021/12/12 00:23:35;;;;;;;5.28;3.63;;;20.40;48.10;;;;;;4996042;28;20385;-63
2021/12/12 00:26:01;;;;;;;5.38;3.45;;;20.40;48.10;;;;;;4996577;28;20046;-62
2021/12/12 00:28:28;;;;;;;6.05;4.30;;;20.40;48.00;;;;;;4996227;28;20050;-62
2021/12/12 00:30:58;;;;;;;4.75;3.70;;;20.40;47.90;;;;;;4996097;28;20049;-62
2021/12/12 00:33:25;;;;;;;;;;;20.40;47.90;;;;;;4995456;28;20458;-63
2021/12/12 00:35:51;;;;;;;6.47;4.38;;;20.40;47.80;;;;;;4996099;28;19925;-62
2021/12/12 00:38:25;;;;;;;5.20;3.67;;;20.40;48.00;;;;;;4995779;28;20413;-63
2021/12/12 00:40:53;;;;;;;7.88;3.97;;;20.40;47.90;;;;;;4995074;28;20049;-62
2021/12/12 00:43:28;;;;;;;5.35;3.83;;;20.40;47.90;;;;;;4995980;28;20080;-62
2021/12/12 00:45:57;;;;;;;5.88;3.88;;;20.40;47.80;;;;;;4995920;28;20089;-62
2021/12/12 00:48:24;;;;;;;8.70;4.07;;;20.40;47.80;;;;;;4996309;28;20042;-63
2021/12/12 00:50:51;;;;;;;7.00;4.03;;;20.40;47.80;;;;;;4994855;28;20454;-62
2021/12/12 00:53:20;;;;;;;5.35;3.80;;;20.40;47.70;;;;;;4996277;28;20049;-61
2021/12/12 00:55:47;;;;;;;6.97;4.00;;;20.40;47.70;;;;;;4995701;28;20108;-62
2021/12/12 00:58:15;;;;;;;6.00;4.15;;;20.40;47.70;;;;;;4994390;28;20042;-62
2021/12/12 01:00:55;;;;;;;10.18;4.25;;;20.30;47.60;;;;;;4995869;28;20482;-62
2021/12/12 01:03:29;;;;;;;11.30;4.53;;;20.40;47.70;;;;;;4995863;28;20034;-62
2021/12/12 01:05:56;;;;;;;7.65;4.10;;;20.30;47.50;;;;;;4995779;28;20101;-62
2021/12/12 01:08:22;;;;;;;6.50;4.03;;;20.30;47.50;;;;;;4995460;28;20046;-62
2021/12/12 01:10:53;;;;;;;9.15;4.13;;;20.30;47.50;;;;;;4995439;28;20046;-62
2021/12/12 01:13:19;;;;;;;8.82;3.88;;;20.30;47.50;;;;;;4995370;28;20046;-62
2021/12/12 01:15:51;;;;;;;9.70;4.55;;;20.30;47.50;;;;;;4995866;28;20053;-62
2021/12/12 01:18:24;;;;;;;9.52;3.90;;;20.30;47.50;;;;;;4995433;28;20038;-62
2021/12/12 01:20:57;;;;;;;6.30;4.10;;;20.30;47.40;;;;;;4995532;28;20042;-62
2021/12/12 01:23:37;;;;;;;8.05;3.85;;;20.30;47.40;;;;;;4995716;28;20049;-62
2021/12/12 01:26:05;;;;;;;8.45;3.95;;;20.30;47.40;;;;;;4995438;28;20073;-62
2021/12/12 01:28:33;;;;;;;6.75;3.88;;;20.30;47.40;;;;;;4994954;28;20042;-62
2021/12/12 01:31:01;;;;;;;8.98;4.25;;;20.30;47.40;;;;;;4995040;28;20042;-62
2021/12/12 01:33:34;;;;;;;7.47;4.25;;;20.20;47.30;;;;;;4995001;28;20065;-62
2021/12/12 01:36:06;;;;;;;7.30;4.13;;;20.20;47.30;;;;;;4994878;28;20043;-63
2021/12/12 01:38:56;;;;;;;6.10;3.65;;;20.20;47.20;;;;;;4994938;28;20039;-63
2021/12/12 01:41:30;;;;;;;7.30;3.78;;;20.20;47.20;;;;;;4995689;28;20141;-63
2021/12/12 01:44:02;;;;;;;6.88;3.63;;;20.20;47.20;;;;;;4994760;28;20038;-62
2021/12/12 01:46:33;;;;;;;8.20;4.20;;;20.20;47.20;;;;;;4994822;28;20046;-62
2021/12/12 01:49:07;;;;;;;7.82;3.92;;;20.20;47.20;;;;;;4994819;28;20043;-62
2021/12/12 01:51:33;;;;;;;5.13;3.95;;;20.20;47.10;;;;;;4994847;28;20038;-62
2021/12/12 01:54:03;;;;;;;7.35;3.45;;;20.20;47.20;;;;;;4994732;28;20497;-62
2021/12/12 01:56:34;;;;;;;4.95;3.60;;;20.20;47.10;;;;;;4994873;28;20130;-62
2021/12/12 01:59:05;;;;;;;6.28;3.88;;;20.20;47.10;;;;;;4994675;28;20426;-62
2021/12/12 02:01:42;;;;;;;4.90;3.38;;;20.20;47.10;;;;;;4995156;28;20057;-62
2021/12/12 02:04:14;;;;;;;6.65;3.40;;;20.20;47.00;;;;;;4995267;28;20043;-62
2021/12/12 02:06:43;;;;;;;5.00;3.55;;;20.20;47.00;;;;;;4994466;28;20462;-63
2021/12/12 02:09:10;;;;;;;5.75;3.50;;;20.20;47.00;;;;;;4994494;28;20172;-62
2021/12/12 02:11:37;;;;;;;4.38;3.40;;;20.20;47.00;;;;;;4994321;28;20486;-61
2021/12/12 02:14:10;;;;;;;8.13;3.45;;;20.20;47.10;;;;;;4994405;28;20046;-62
2021/12/12 02:16:42;;;;;;;4.75;3.28;;;20.20;47.20;;;;;;4994758;28;20092;-62
2021/12/12 02:19:09;;;;;;;5.53;3.63;;;20.20;47.20;;;;;;4994283;28;20062;-62
2021/12/12 02:21:58;;;;;;;4.38;3.45;;;20.20;47.30;;;;;;4994297;28;20042;-62
2021/12/12 02:35:07;;;;;;;8.35;3.88;;;20.20;47.30;;;;;;4994681;28;20100;-62
2021/12/12 02:35:44;;;;;;;5.55;3.20;;;20.10;47.30;;;;;;4994831;28;20181;-62
2021/12/12 02:38:14;;;;;;;5.68;3.50;;;20.10;47.40;;;;;;4993025;28;20038;-62
2021/12/12 02:40:45;;;;;;;4.80;3.13;;;20.10;47.30;;;;;;4994205;28;20046;-62
2021/12/12 02:43:14;;;;;;;5.28;3.50;;;20.10;47.30;;;;;;4994693;28;20169;-62
2021/12/12 02:45:42;;;;;;;6.95;3.60;;;20.10;47.30;;;;;;4994038;28;20038;-62
2021/12/12 02:48:09;;;;;;;3.78;2.85;;;20.10;47.30;;;;;;4997434;28;20125;-62
2021/12/12 02:50:42;;;;;;;6.80;3.40;;;20.10;47.40;;;;;;4998013;28;20121;-62
2021/12/12 02:53:22;;;;;;;3.83;3.20;;;20.10;47.20;;;;;;4998135;28;20496;-62
2021/12/12 02:55:55;;;;;;;6.30;3.40;;;20.10;47.20;;;;;;4997449;28;20050;-62
2021/12/12 02:58:22;;;;;;;5.78;3.80;;;20.10;47.20;;;;;;4998211;28;20048;-62
2021/12/12 03:01:00;;;;;;;4.18;3.00;;;20.10;47.20;;;;;;4997699;28;20046;-62
2021/12/12 03:03:29;;;;;;;6.75;3.70;;;20.10;47.20;;;;;;4997830;28;20058;-62
2021/12/12 03:05:56;;;;;;;5.18;3.22;;;20.00;47.10;;;;;;4997789;28;20470;-62
2021/12/12 03:08:22;;;;;;;3.90;3.20;;;20.00;47.10;;;;;;4996523;28;20038;-62
2021/12/12 03:10:52;;;;;;;5.50;2.97;;;20.00;47.10;;;;;;4997661;28;20457;-61
2021/12/12 03:13:17;;;;;;;5.28;3.00;;;20.00;47.10;;;;;;4997752;28;20133;-62
2021/12/12 03:15:45;;;;;;;3.92;3.38;;;20.10;47.10;;;;;;4997454;28;20149;-62
2021/12/12 03:18:18;;;;;;;5.97;2.80;;;20.00;47.10;;;;;;4997497;28;20038;-62
2021/12/12 03:20:49;;;;;;;4.93;3.38;;;20.00;47.10;;;;;;4998169;28;20060;-62
2021/12/12 03:23:43;;;;;;;4.07;2.83;;;20.00;47.10;;;;;;4997818;28;20057;-62
2021/12/12 03:26:10;;;;;;;3.95;3.08;;;20.00;47.00;;;;;;4996970;28;20055;-62
2021/12/12 03:28:40;;;;;;;5.40;2.95;;;20.00;47.10;;;;;;4997370;28;20038;-62
2021/12/12 03:31:10;;;;;;;6.20;2.90;;;20.00;47.00;;;;;;4997274;28;20385;-62
2021/12/12 03:33:36;;;;;;;5.28;3.10;;;20.00;47.00;;;;;;4997233;28;20096;-62
2021/12/12 03:36:06;;;;;;;3.72;2.90;;;20.00;47.20;;;;;;4997731;28;20049;-62
2021/12/12 03:38:34;;;;;;;4.40;2.90;;;20.00;47.00;;;;;;4995976;28;20049;-62
2021/12/12 03:41:04;;;;;;;3.40;2.60;;;20.00;47.10;;;;;;4997584;28;20057;-62
2021/12/12 03:43:30;;;;;;;4.03;2.67;;;20.00;47.10;;;;;;4997216;28;20057;-62
2021/12/12 03:45:57;;;;;;;2.97;2.55;;;20.00;47.20;;;;;;4997037;28;20121;-62
2021/12/12 03:48:30;;;;;;;4.80;2.70;;;20.00;47.10;;;;;;4996881;28;20093;-62
2021/12/12 03:50:59;;;;;;;4.38;2.70;;;20.00;47.10;;;;;;4997456;28;20049;-62
2021/12/12 03:53:27;;;;;;;4.50;2.88;;;19.90;47.00;;;;;;4996648;28;20389;-62
2021/12/12 03:55:54;;;;;;;4.18;2.47;;;20.00;47.00;;;;;;4997370;28;20042;-62
2021/12/12 03:58:19;;;;;;;3.95;2.70;;;19.90;47.00;;;;;;4979101;28;20085;-61
2021/12/12 04:00:48;;;;;;;3.70;2.65;;;19.90;47.00;;;;;;4996832;28;20030;-62
2021/12/12 04:03:14;;;;;;;5.32;2.72;;;19.90;47.10;;;;;;4995715;28;20369;-62
2021/12/12 04:05:45;;;;;;;4.35;2.72;;;19.90;47.00;;;;;;4996620;28;20038;-61
2021/12/12 04:08:10;;;;;;;4.97;3.03;;;19.90;47.00;;;;;;4996883;28;20074;-62
2021/12/12 04:10:36;;;;;;;3.53;2.50;;;19.90;47.00;;;;;;4995433;28;20081;-62
2021/12/12 04:13:02;;;;;;;3.80;2.55;;;19.90;47.00;;;;;;4996233;28;20528;-62
2021/12/12 04:15:28;;;;;;;3.20;2.72;;;19.90;47.00;;;;;;4996506;28;20050;-62
2021/12/12 04:17:55;;;;;;;3.35;2.50;;;19.90;47.00;;;;;;4997225;28;20038;-62
2021/12/12 04:20:32;;;;;;;3.95;2.22;;;19.90;47.00;;;;;;4995225;28;20054;-62
2021/12/12 04:22:58;;;;;;;3.67;2.28;;;19.90;47.00;;;;;;4996333;28;20125;-62
2021/12/12 04:25:24;;;;;;;2.83;2.08;;;19.90;47.00;;;;;;4995072;28;20042;-62
2021/12/12 04:27:51;;;;;;;3.05;2.40;;;19.80;47.00;;;;;;4996216;28;20038;-62
2021/12/12 04:30:18;;;;;;;3.03;2.13;;;19.80;47.10;;;;;;4996225;28;20051;-62
2021/12/12 04:32:44;;;;;;;4.32;2.42;;;19.80;47.10;;;;;;4996190;28;20034;-62
2021/12/12 04:35:17;;;;;;;4.20;2.08;;;19.80;47.00;;;;;;4996107;28;20038;-61
2021/12/12 04:37:44;;;;;;;3.70;2.40;;;19.80;47.00;;;;;;4995474;28;20053;-62
2021/12/12 04:40:15;;;;;;;3.53;2.40;;;19.80;47.00;;;;;;4996112;28;20085;-62
2021/12/12 04:42:43;;;;;;;4.30;2.55;;;19.80;47.10;;;;;;4996066;28;20048;-62
2021/12/12 04:45:57;;;;;;;3.05;2.10;;;19.80;47.10;;;;;;4995889;28;20126;-62
2021/12/12 04:51:58;;;;;;;2.92;2.15;;;19.80;47.10;;;;;;4974061;28;20777;-62
2021/12/12 04:54:36;;;;;;;2.13;1.83;;;19.80;47.10;;;;;;4974572;28;20486;-62
2021/12/12 04:57:07;;;;;;;2.35;1.75;;;19.80;47.20;;;;;;4987989;28;20058;-62
2021/12/12 04:59:36;;;;;;;;;;;19.70;47.20;;;;;;4996206;28;20093;-62
2021/12/12 05:02:21;;;;;;;2.22;1.90;;;19.70;47.10;;;;;;4994332;28;19918;-62
2021/12/12 05:04:56;;;;;;;2.00;1.80;;;19.70;47.20;;;;;;4995694;28;20092;-62
2021/12/12 05:07:30;;;;;;;3.60;2.08;;;19.70;47.20;;;;;;4996146;28;20043;-62
2021/12/12 05:10:10;;;;;;;2.03;1.70;;;19.70;47.20;;;;;;4995591;28;20034;-63
2021/12/12 05:12:43;;;;;;;2.10;1.90;;;19.70;47.10;;;;;;4995560;28;20121;-62
2021/12/12 05:15:34;;;;;;;2.03;1.70;;;19.70;47.10;;;;;;4995441;28;20485;-62
2021/12/12 05:18:08;;;;;;;1.67;1.50;;;19.70;47.10;;;;;;4992302;28;20057;-62
2021/12/12 05:20:39;;;;;;;3.25;1.88;;;19.70;47.10;;;;;;4995707;28;20054;-62
2021/12/12 05:23:07;;;;;;;1.92;1.65;;;19.70;47.20;;;;;;4995715;28;20042;-62
2021/12/12 05:25:44;;;;;;;2.00;1.58;;;19.70;47.10;;;;;;4995039;28;20046;-62
2021/12/12 05:28:11;;;;;;;2.85;1.90;;;19.70;47.10;;;;;;4995180;28;20085;-62
2021/12/12 05:30:38;;;;;;;1.80;1.58;;;19.70;47.20;;;;;;4995122;28;20042;-62
2021/12/12 05:33:04;;;;;;;1.65;1.30;;;19.60;47.10;;;;;;4995479;28;20046;-62
2021/12/12 05:35:34;;;;;;;1.92;1.63;;;19.60;47.10;;;;;;4994261;28;20034;-62
2021/12/12 05:38:00;;;;;;;2.22;1.40;;;19.60;47.10;;;;;;4994870;28;20509;-62
2021/12/12 05:40:30;;;;;;;2.25;1.52;;;19.60;47.10;;;;;;4994851;28;20046;-62
2021/12/12 05:42:59;;;;;;;2.25;1.58;;;19.60;47.10;;;;;;4995188;28;20124;-62
2021/12/12 05:45:26;;;;;;;2.22;1.60;;;19.60;47.10;;;;;;4990303;28;20034;-62
2021/12/12 05:47:52;;;;;;;2.05;1.70;;;19.60;47.20;;;;;;4994800;28;20100;-62
2021/12/12 05:50:18;;;;;;;5.80;1.58;;;19.60;47.10;;;;;;4994844;28;20042;-62
2021/12/12 05:52:45;;;;;;;1.60;1.35;;;19.60;47.10;;;;;;4993496;28;20042;-62
2021/12/12 05:55:16;;;;;;;5.00;1.58;;;19.60;47.10;;;;;;4994611;28;20041;-62
2021/12/12 05:57:45;;;;;;;2.10;1.42;;;19.60;47.10;;;;;;4994733;28;20093;-62
2021/12/12 06:00:15;;;;;;;2.47;1.60;;;19.60;47.10;;;;;;4994580;28;20173;-62
2021/12/12 06:02:41;;;;;;;7.90;1.40;;;19.60;47.20;;;;;;4994595;28;20153;-62
2021/12/12 06:05:08;;;;;;;8.13;1.60;;;19.60;47.20;;;;;;4994480;28;20042;-62
2021/12/12 06:07:34;;;;;;;4.72;1.77;;;19.60;47.20;;;;;;4995029;28;20100;-62
2021/12/12 06:10:07;;;;;;;3.42;1.40;;;19.60;47.10;;;;;;4994462;28;20125;-62
2021/12/12 06:12:34;;;;;;;3.08;1.40;;;19.60;47.20;;;;;;4994516;28;20050;-62
2021/12/12 06:15:04;;;;;;;2.58;1.23;;;19.60;47.20;;;;;;4994365;28;20043;-62
2021/12/12 06:17:30;;;;;;;3.30;1.38;;;19.60;47.20;;;;;;4994410;28;20049;-62
2021/12/12 06:19:57;;;;;;;1.65;1.23;;;19.50;47.20;;;;;;4994435;28;20058;-62
2021/12/12 06:22:23;;;;;;;1.38;0.95;;;19.50;47.20;;;;;;4994078;28;20125;-62
2021/12/12 06:24:50;;;;;;;1.40;1.30;;;19.50;47.20;;;;;;4994295;28;20136;-62
2021/12/12 06:27:18;;;;;;;2.78;1.10;;;19.50;47.10;;;;;;4994184;28;20508;-62
2021/12/12 06:29:47;;;;;;;2.85;1.17;;;19.50;47.20;;;;;;4994341;28;20035;-62
2021/12/12 06:32:13;;;;;;;2.47;1.30;;;19.50;47.10;;;;;;4994291;28;20082;-62
2021/12/12 06:34:39;;;;;;;2.05;1.20;;;19.50;47.10;;;;;;4994802;28;20050;-62
2021/12/12 06:37:06;;;;;;;1.30;1.20;;;19.50;47.10;;;;;;4994167;28;20084;-62
2021/12/12 06:39:32;;;;;;;2.05;1.27;;;19.50;47.10;;;;;;4994650;28;20129;-62
2021/12/12 06:41:58;;;;;;;2.25;1.25;;;19.50;47.00;;;;;;4994209;28;20440;-62
2021/12/12 06:44:24;;;;;;;1.30;1.15;;;19.50;47.10;;;;;;4994118;28;20056;-62
2021/12/12 06:46:51;;;;;;;1.90;1.13;;;19.50;47.00;;;;;;4993015;28;20042;-62
2021/12/12 06:49:18;;;;;;;1.80;1.38;;;19.50;47.10;;;;;;4992685;28;20046;-62
2021/12/12 06:51:50;;;;;;;1.00;0.98;;;19.50;47.10;;;;;;4994889;28;20421;-62
2021/12/12 06:54:20;;;;;;;1.30;1.20;;;19.60;47.10;;;;;;4994671;28;20052;-62
2021/12/12 06:56:48;;;;;;;1.20;1.10;;;19.60;47.10;;;;;;4993968;28;20042;-62
2021/12/12 06:59:15;;;;;;;1.55;1.10;;;19.60;47.10;;;;;;4993695;28;20367;-61
2021/12/12 07:01:41;;;;;;;1.48;1.20;;;19.60;47.10;;;;;;4994029;28;20077;-61
2021/12/12 07:04:10;;;;;;;1.75;1.10;;;19.60;47.20;;;;;;4993861;28;20038;-62
2021/12/12 07:06:37;;;;;;;1.98;1.17;;;19.60;47.20;;;;;;4993950;28;20125;-61
2021/12/12 07:09:06;;;;;;;1.45;1.13;;;19.60;47.20;;;;;;5009011;28;20042;-62
2021/12/12 07:11:34;;;;;;;1.23;0.95;;;19.60;47.30;;;;;;4992613;28;20088;-62
2021/12/12 07:14:01;;;;;;;1.27;1.17;;;19.60;47.30;;;;;;4993843;28;20049;-62
2021/12/12 07:16:27;;;;;;;1.13;0.95;;;19.60;47.40;;;;;;4985136;28;20118;-62
2021/12/12 07:18:55;;;;;;;1.58;1.08;;;19.70;47.50;;;;;;4991673;28;20046;-62
2021/12/12 07:21:22;;;;;;;2.75;1.00;;;19.60;47.60;;;;;;4989164;28;20053;-62
2021/12/12 07:23:50;;;;;;;0.80;0.77;;;19.70;47.70;;;;;;4982368;28;20152;-61
2021/12/12 07:26:18;;;;;;;2.47;1.10;;;19.70;47.70;;;;;;4986327;28;20062;-62
2021/12/12 07:28:47;;;;;;;1.80;0.82;;;19.70;47.80;;;;;;4992444;28;20046;-62
2021/12/12 07:31:18;;;;;;;1.17;0.80;;;19.70;48.50;;;;;;4988178;28;20045;-62
2021/12/12 07:33:45;;;;;;;1.15;1.00;;;19.80;47.90;;;;;;4991345;28;20105;-62
2021/12/12 07:36:12;;;;;;;1.65;1.05;;;19.80;47.90;;;;;;4987448;28;20026;-62
2021/12/12 07:38:43;;;;;;;0.95;0.75;;;19.80;47.90;;;;;;4985383;28;20038;-62
2021/12/12 07:41:09;;;;;;;2.13;0.77;;;19.80;47.90;;;;;;4988421;28;20050;-62
2021/12/12 07:43:36;;;;;;;0.80;0.80;;;19.80;47.90;;;;;;4978161;28;20400;-62
2021/12/12 07:46:04;;;;;;;0.95;0.80;;;19.80;48.00;;;;;;4980734;28;20034;-62
2021/12/12 07:48:29;;;;;;;0.68;0.63;;;19.90;48.00;;;;;;4991986;28;20057;-61
2021/12/12 07:50:56;;;;;;;1.23;0.77;;;19.80;48.00;;;;;;4994493;28;20042;-62
2021/12/12 07:53:25;;;;;;;1.77;0.93;;;19.90;48.00;;;;;;4984285;28;20058;-62
2021/12/12 07:55:52;;;;;;;2.53;0.73;;;19.90;48.10;;;;;;4977289;28;20056;-62
2021/12/12 07:58:18;;;;;;;1.40;0.90;;;19.90;48.10;;;;;;4996355;28;20038;-62
2021/12/12 08:00:47;;;;;;;3.72;1.10;;;19.90;48.10;;;;;;4983461;28;20041;-62
2021/12/12 08:03:15;;;;;;;1.67;1.00;;;20.00;48.30;;;;;;4991152;28;20047;-62
2021/12/12 08:05:41;;;;;;;2.00;1.02;;;20.00;48.40;;;;;;4989507;28;20041;-62
2021/12/12 08:08:10;;;;;;;5.53;1.90;;;19.90;48.20;;;;;;4982135;28;20057;-62
2021/12/12 08:10:38;;;;;;;13.75;3.63;;;20.00;48.30;;;;;;4977106;28;20045;-62
2021/12/12 08:13:05;;;;;;;14.02;4.57;;;20.00;48.50;;;;;;4995528;28;20389;-62
2021/12/12 08:15:31;;;;;;;24.88;6.35;;;20.10;48.80;;;;;;4974430;28;20060;-62
2021/12/12 08:17:59;;;;;;;24.48;6.50;;;20.10;49.20;;;;;;4996407;28;20038;-62
2021/12/12 08:20:26;;;;;;;21.98;6.50;;;20.10;49.50;;;;;;4988324;28;20058;-63
2021/12/12 08:22:53;;;;;;;21.73;7.80;;;20.10;49.80;;;;;;4976923;28;20061;-61
2021/12/12 08:25:19;;;;;;;24.60;8.15;;;20.20;50.00;;;;;;4978552;28;20034;-62
2021/12/12 08:27:46;;;;;;;29.08;8.63;;;20.20;50.30;;;;;;4992108;28;20129;-61
2021/12/12 08:30:15;;;;;;;27.20;8.18;;;20.20;50.80;;;;;;4966978;28;20085;-62
2021/12/12 08:32:43;;;;;;;28.20;8.38;;;20.20;50.90;;;;;;4993793;28;20412;-62
2021/12/12 08:35:11;;;;;;;28.90;8.40;;;20.20;51.80;;;;;;4974190;28;20081;-62
2021/12/12 08:37:38;;;;;;;27.75;9.57;;;20.30;51.20;;;;;;4971546;28;20482;-62
2021/12/12 08:40:05;;;;;;;27.20;9.20;;;20.30;52.00;;;;;;4984584;28;20038;-62
2021/12/12 08:42:31;;;;;;;26.00;9.00;;;20.30;51.40;;;;;;4992355;28;20051;-62
2021/12/12 08:44:59;;;;;;;30.25;9.20;;;20.40;51.60;;;;;;4995673;28;20121;-61
2021/12/12 08:47:25;;;;;;;27.20;9.88;;;20.30;51.60;;;;;;4992156;28;20046;-62
2021/12/12 08:49:51;;;;;;;32.53;10.05;;;20.40;51.70;;;;;;4977643;28;20164;-60
2021/12/12 08:52:28;;;;;;;29.30;9.52;;;20.40;52.50;;;;;;4984414;28;20440;-59
2021/12/12 08:54:55;;;;;;;27.33;8.32;;;20.40;51.80;;;;;;4962162;28;20045;-59
2021/12/12 08:57:44;;;;;;;28.98;9.73;;;20.40;51.60;;;;;;4995362;28;20473;-59
2021/12/12 09:00:15;;;;;;;26.25;8.18;;;20.40;51.70;;;;;;4985354;28;20046;-51
2021/12/12 09:02:41;;;;;;;27.20;8.25;;;20.50;51.70;;;;;;4991047;28;20038;-59
2021/12/12 09:05:17;;;;;;;22.15;6.90;;;20.50;51.60;;;;;;4986614;28;20089;-59
2021/12/12 09:07:46;;;;;;;22.08;7.40;;;20.50;51.80;;;;;;4973485;28;20161;-59
2021/12/12 09:10:21;;;;;;;20.73;7.15;;;20.50;52.00;;;;;;4988908;28;20050;-59
2021/12/12 09:12:54;;;;;;;16.08;5.70;;;20.50;51.90;;;;;;4996019;28;20046;-59
2021/12/12 09:15:34;;;;;;;23.42;6.90;;;20.50;51.90;;;;;;4975274;28;20045;-59
2021/12/12 09:18:24;;;;;;;15.73;6.18;;;20.60;51.90;;;;;;4973696;28;20046;-58
2021/12/12 09:20:56;;;;;;;19.27;6.43;;;20.60;51.80;;;;;;4985402;28;20069;-58
2021/12/12 09:23:32;;;;;;;20.33;6.10;;;20.60;51.80;;;;;;4991576;28;20045;-58
2021/12/12 09:26:13;;;;;;;20.17;6.82;;;20.60;51.80;;;;;;4984652;28;20035;-58
2021/12/12 09:28:44;;;;;;;15.48;5.95;;;20.70;51.90;;;;;;4977906;28;20035;-58
2021/12/12 09:31:18;;;;;;;16.35;6.07;;;20.60;51.80;;;;;;4995476;28;20116;-58
2021/12/12 09:33:58;;;;;;;14.98;5.20;;;20.70;51.90;;;;;;4988571;28;20053;-58
2021/12/12 09:36:33;;;;;;;16.77;5.60;;;20.60;52.10;;;;;;4977659;28;20035;-58
2021/12/12 09:39:13;;;;;;;16.30;5.50;;;20.70;52.30;;;;;;4972889;28;20296;-58
2021/12/12 09:42:16;;;;;;;15.38;5.32;;;20.70;52.40;;;;;;4976259;28;20053;-57
2021/12/12 09:45:01;;;;;;;14.00;4.78;;;20.70;52.70;;;;;;4976927;28;20035;-58
2021/12/12 09:47:58;;;;;;;14.40;5.10;;;20.70;52.80;;;;;;4991114;28;20054;-58
2021/12/12 09:53:44;;;;;;;10.10;4.70;;;20.70;52.70;;;;;;4995259;28;20077;-58
2021/12/12 09:56:26;;;;;;;15.65;4.70;;;20.70;52.80;;;;;;4994126;28;20042;-58
2021/12/12 09:59:16;;;;;;;12.45;4.10;;;20.80;52.90;;;;;;4975210;28;20042;-58
2021/12/12 10:02:01;;;;;;;13.65;4.38;;;20.80;52.80;;;;;;4988077;28;20070;-58
2021/12/12 10:04:33;;;;;;;10.50;4.20;;;20.80;52.80;;;;;;4984233;28;20045;-57
2021/12/12 10:07:20;;;;;;;13.38;4.80;;;20.80;52.80;;;;;;4970582;28;20081;-57
2021/12/12 10:09:53;;;;;;;12.38;4.00;;;20.80;52.90;;;;;;4989910;28;20489;-58
2021/12/12 10:12:23;;;;;;;11.18;4.20;;;20.80;52.90;;;;;;4956383;28;20043;-58
2021/12/12 10:14:58;;;;;;;10.80;4.35;;;20.80;53.00;;;;;;4970420;28;20088;-58
2021/12/12 10:17:31;;;;;;;6.53;3.47;;;20.90;53.00;;;;;;4973014;28;20034;-59
2021/12/12 10:20:02;;;;;;;10.63;4.32;;;20.80;53.00;;;;;;4973570;28;20058;-58
2021/12/12 10:22:46;;;;;;;10.13;3.45;;;20.80;53.10;;;;;;4993862;28;20121;-58
2021/12/12 10:25:16;;;;;;;13.60;3.33;;;20.90;53.20;;;;;;4994172;28;20042;-57
2021/12/12 10:27:53;;;;;;;8.88;3.80;;;20.90;53.20;;;;;;4976932;28;20057;-59
2021/12/12 10:30:34;;;;;;;11.68;3.63;;;20.90;53.30;;;;;;4960946;28;20496;-57
2021/12/12 10:33:19;;;;;;;5.93;2.85;;;20.90;53.20;;;;;;4994421;28;20121;-58
2021/12/12 10:35:52;;;;;;;8.85;3.20;;;20.90;53.30;;;;;;4993071;28;20046;-59
2021/12/12 10:38:24;;;;;;;10.70;2.92;;;20.90;53.20;;;;;;4993901;28;20421;-59
2021/12/12 10:41:21;;;;;;;7.60;3.10;;;20.90;53.20;;;;;;4994355;28;20046;-60
2021/12/12 10:44:16;;;;;;;9.43;3.00;;;20.90;53.30;;;;;;4993797;28;20133;-59
2021/12/12 10:46:45;;;;;;;9.38;3.08;;;20.90;53.30;;;;;;4989457;28;20050;-60
2021/12/12 10:49:34;;;;;;;8.10;3.17;;;20.90;53.20;;;;;;4979027;28;20126;-59
2021/12/12 10:52:10;;;;;;;7.82;3.10;;;20.90;53.20;;;;;;4975328;28;20046;-60
2021/12/12 10:54:39;;;;;;;5.03;2.72;;;20.90;53.20;;;;;;4977458;28;20046;-60
2021/12/12 10:57:13;;;;;;;10.65;3.25;;;20.80;53.10;;;;;;4974996;28;20074;-59
2021/12/12 10:59:51;;;;;;;6.85;3.03;;;20.90;53.10;;;;;;4988831;28;20524;-60
2021/12/12 11:02:20;;;;;;;6.40;2.42;;;20.80;53.00;;;;;;4991569;28;20069;-60
2021/12/12 11:04:56;;;;;;;9.73;3.10;;;20.80;53.00;;;;;;4990715;28;20470;-58
2021/12/12 11:07:32;;;;;;;7.95;2.80;;;20.80;53.00;;;;;;4976676;28;20091;-58
2021/12/12 11:10:19;;;;;;;6.35;2.65;;;20.80;52.90;;;;;;4984770;28;20031;-57
2021/12/12 11:13:22;;;;;;;11.77;3.45;;;20.80;52.90;;;;;;4977862;28;20165;-58
2021/12/12 11:16:05;;;;;;;15.90;3.35;;;20.80;53.10;;;;;;4985794;28;20088;-58
2021/12/12 11:18:39;;;;;;;24.60;5.13;;;20.80;53.30;;;;;;4984398;28;20042;-57
2021/12/12 11:21:23;;;;;;;22.00;4.13;;;20.80;53.30;;;;;;4978668;28;20455;-57
2021/12/12 11:23:51;;;;;;;23.10;4.10;;;20.80;53.60;;;;;;4976266;28;20482;-57
2021/12/12 11:26:22;;;;;;;21.42;3.88;;;20.80;53.70;;;;;;4993758;28;20129;-57
2021/12/12 11:28:57;;;;;;;18.15;4.30;;;20.80;53.90;;;;;;4979505;28;20035;-58
2021/12/12 11:31:32;;;;;;;18.63;4.13;;;20.80;53.90;;;;;;4977738;28;20035;-57
2021/12/12 11:33:58;;;;;;;23.30;3.95;;;20.80;54.30;;;;;;4981092;28;20121;-56
2021/12/12 11:36:32;;;;;;;20.60;3.60;;;20.80;54.60;;;;;;4992428;28;20046;-57
2021/12/12 11:39:12;;;;;;;26.17;4.70;;;20.80;54.90;;;;;;4997340;28;20070;-47
2021/12/12 11:41:55;;;;;;;13.55;3.03;;;20.80;55.10;;;;;;4997052;28;20035;-57
2021/12/12 11:44:29;;;;;;;16.75;4.18;;;20.80;55.10;;;;;;4996350;28;20039;-57
2021/12/12 11:47:21;;;;;;;21.70;3.90;;;20.80;55.30;;;;;;4997509;28;20126;-57
2021/12/12 11:50:02;;;;;;;17.50;3.97;;;20.80;55.30;;;;;;4997169;28;20046;-57
2021/12/12 11:52:50;;;;;;;14.85;3.72;;;20.80;55.30;;;;;;4996866;28;20043;-57
2021/12/12 11:55:27;;;;;;;18.98;3.35;;;20.80;55.80;;;;;;4996690;28;20034;-57
2021/12/12 11:58:04;;;;;;;24.17;4.32;;;20.90;55.90;;;;;;4997299;28;20057;-57
2021/12/12 12:00:36;;;;;;;24.35;4.10;;;20.80;56.60;;;;;;4996669;28;20046;-57
2021/12/12 12:03:32;;;;;;;29.77;3.97;;;20.90;55.90;;;;;;4996386;28;20466;-59
2021/12/12 12:06:22;;;;;;;21.70;3.63;;;20.90;56.00;;;;;;4997106;28;20054;-57
2021/12/12 12:09:25;;;;;;;22.92;3.88;;;20.90;55.90;;;;;;4997038;28;20193;-57
2021/12/12 12:12:04;;;;;;;17.50;3.75;;;20.90;55.90;;;;;;4996427;28;20105;-57
2021/12/12 12:14:39;;;;;;;19.02;3.33;;;20.90;56.10;;;;;;4995976;28;20057;-57
2021/12/12 12:17:41;;;;;;;18.38;3.33;;;20.90;56.10;;;;;;4997468;28;20108;-57
2021/12/12 12:20:42;;;;;;;15.77;3.97;;;20.90;56.10;;;;;;4996170;28;20058;-57
2021/12/12 12:23:16;;;;;;;23.45;3.42;;;20.90;56.00;;;;;;4996323;28;20038;-57
2021/12/12 12:29:04;;;;;;;11.07;2.85;;;20.90;56.10;;;;;;4996260;28;20080;-57
2021/12/12 12:31:33;;;;;;;;;;;20.90;56.20;;;;;;4996545;28;20422;-57
2021/12/12 12:34:40;;;;;;;14.75;3.25;;;20.90;56.20;;;;;;4981701;28;20277;-57
2021/12/12 12:37:43;;;;;;;18.90;3.63;;;20.80;56.20;;;;;;4975441;28;20038;-57
2021/12/12 12:40:46;;;;;;;12.65;2.88;;;20.80;56.10;;;;;;4970233;28;20051;-56
2021/12/12 12:43:32;;;;;;;7.38;2.50;;;20.90;55.90;;;;;;4989227;28;20041;-57
2021/12/12 12:46:52;;;;;;;7.82;2.28;;;20.80;55.60;;;;;;4988705;28;20109;-57
2021/12/12 12:49:55;;;;;;;9.82;2.65;;;20.80;55.50;;;;;;4995311;28;20096;-57
2021/12/12 12:52:54;;;;;;;19.13;3.10;;;20.80;55.70;;;;;;4995726;28;20042;-57
2021/12/12 12:55:53;;;;;;;21.40;3.00;;;20.80;56.30;;;;;;4996177;28;20129;-57
2021/12/12 12:58:30;;;;;;;26.30;3.53;;;20.80;56.60;;;;;;4995027;28;20181;-57
2021/12/12 13:01:04;;;;;;;17.77;3.25;;;20.80;56.80;;;;;;4995615;28;20096;-57
2021/12/12 13:04:08;;;;;;;23.05;3.20;;;20.80;57.00;;;;;;4994804;28;20046;-57
2021/12/12 13:07:15;;;;;;;18.05;3.10;;;20.80;57.10;;;;;;4976181;28;20497;-57
2021/12/12 13:10:09;;;;;;;25.45;3.80;;;20.90;57.30;;;;;;4995300;28;20050;-57
2021/12/12 13:12:37;;;;;;;16.38;3.38;;;20.90;57.30;;;;;;4994341;28;20109;-57
2021/12/12 13:15:20;;;;;;;14.45;3.28;;;20.90;57.30;;;;;;4995263;28;20077;-58
2021/12/12 13:18:20;;;;;;;12.07;2.53;;;20.90;57.40;;;;;;4994188;28;20038;-58
2021/12/12 13:21:02;;;;;;;9.15;2.63;;;20.90;57.30;;;;;;4995086;28;20065;-58
2021/12/12 13:23:56;;;;;;;11.77;2.60;;;20.90;57.10;;;;;;4994876;28;20050;-58
2021/12/12 13:26:55;;;;;;;19.73;2.72;;;20.90;57.20;;;;;;4994918;28;20125;-58
2021/12/12 13:29:48;;;;;;;14.00;2.80;;;20.80;57.10;;;;;;4995521;28;20048;-58
2021/12/12 13:32:26;;;;;;;17.65;2.90;;;20.90;57.10;;;;;;4994192;28;20061;-58
2021/12/12 13:35:02;;;;;;;9.23;2.40;;;20.80;57.00;;;;;;4995007;28;20054;-58
2021/12/12 13:37:31;;;;;;;14.15;2.83;;;20.80;57.00;;;;;;4976305;28;20050;-58